Time;durP1;ratioP1;P1;durP2;ratioP2;P2;SDS_P1;SDS_P2;PMS_P1;PMS_P2;Temp;Humidity;BMP_temperature;BMP_pressure;BME280_temperature;BME280_humidity;BME280_pressure;Samples;Min_cycle;Max_cycle;Signal;HPM_P1;HPM_P2
2023/10/11 00:00:59;;;;;;;15.85;10.15;;;;;;;13.09;79.51;98296.84;5087380;28;20263;-74
2023/10/11 00:03:33;;;;;;;14.05;9.88;;;;;;;13.16;79.24;98297.69;5088655;28;20289;-74
2023/10/11 00:06:04;;;;;;;14.35;9.82;;;;;;;13.12;79.26;98291.81;5093503;28;20192;-74
2023/10/11 00:08:39;;;;;;;15.82;9.98;;;;;;;13.07;79.56;98307.91;5087426;28;20211;-74
2023/10/11 00:11:07;;;;;;;15.68;10.45;;;;;;;12.99;79.67;98297.28;5090107;28;20202;-74
2023/10/11 00:13:35;;;;;;;13.93;10.35;;;;;;;13.07;79.55;98297.03;5086260;28;20232;-74
2023/10/11 00:16:07;;;;;;;22.90;10.50;;;;;;;13.01;79.16;98288.91;5089751;28;20202;-74
2023/10/11 00:18:35;;;;;;;15.80;9.80;;;;;;;13.11;78.73;98292.03;5088258;28;20226;-74
2023/10/11 00:21:10;;;;;;;13.48;10.20;;;;;;;13.18;78.42;98295.59;5089241;28;20752;-74
2023/10/11 00:23:41;;;;;;;14.95;9.88;;;;;;;13.27;77.91;98293.50;5088911;28;20232;-71
2023/10/11 00:26:07;;;;;;;14.27;9.30;;;;;;;13.26;78.03;98289.09;5091622;28;20223;-74
2023/10/11 00:28:37;;;;;;;13.38;9.90;;;;;;;13.18;78.11;98284.72;5088835;28;20320;-74
2023/10/11 00:31:06;;;;;;;17.85;10.82;;;;;;;13.20;77.87;98289.94;5084605;28;20206;-73
2023/10/11 00:33:33;;;;;;;15.18;10.80;;;;;;;13.24;77.92;98277.63;5085579;28;20196;-74
2023/10/11 00:36:04;;;;;;;16.75;10.00;;;;;;;13.13;78.17;98287.22;5087189;28;20623;-73
2023/10/11 00:38:42;;;;;;;14.65;10.20;;;;;;;13.08;78.40;98289.72;5087147;28;20298;-74
2023/10/11 00:41:15;;;;;;;20.40;10.60;;;;;;;13.02;78.73;98279.69;5089457;28;20272;-73
2023/10/11 00:43:46;;;;;;;14.97;10.97;;;;;;;13.02;79.05;98275.09;5088652;28;20188;-74
2023/10/11 00:46:14;;;;;;;16.70;9.88;;;;;;;13.08;78.81;98278.84;5091394;28;20477;-74
2023/10/11 00:48:51;;;;;;;15.10;10.25;;;;;;;13.01;78.71;98278.88;5085080;28;20323;-73
2023/10/11 00:51:19;;;;;;;14.80;10.70;;;;;;;13.01;78.73;98268.00;5090658;28;20191;-73
2023/10/11 00:53:47;;;;;;;12.60;9.90;;;;;;;13.08;78.36;98271.53;5086810;28;20287;-74
2023/10/11 00:56:14;;;;;;;12.80;9.80;;;;;;;12.84;79.64;98265.94;5091115;28;20265;-73
2023/10/11 00:58:41;;;;;;;15.18;10.35;;;;;;;12.85;79.60;98270.34;5078278;28;20587;-73
2023/10/11 01:01:08;;;;;;;14.40;10.05;;;;;;;12.81;79.45;98266.38;5088216;28;20269;-74
2023/10/11 01:03:35;;;;;;;15.45;10.20;;;;;;;12.88;79.20;98275.34;5087766;28;20278;-74
2023/10/11 01:06:04;;;;;;;11.30;9.07;;;;;;;12.73;79.83;98270.97;5088597;28;20196;-74
2023/10/11 01:08:38;;;;;;;18.80;9.85;;;;;;;12.81;79.45;98266.38;5086974;28;20230;-74
2023/10/11 01:11:08;;;;;;;14.27;8.95;;;;;;;12.78;79.32;98271.16;5087112;28;20203;-74
2023/10/11 01:13:38;;;;;;;16.60;10.48;;;;;;;12.71;79.82;98267.63;5087906;28;20634;-74
2023/10/11 01:16:05;;;;;;;15.20;10.80;;;;;;;12.52;80.78;98268.47;5085807;28;20658;-74
2023/10/11 01:18:33;;;;;;;13.23;10.23;;;;;;;12.39;81.53;98263.03;5086350;28;20219;-74
2023/10/11 01:21:04;;;;;;;17.88;10.68;;;;;;;12.37;81.74;98259.69;5090191;28;20234;-74
2023/10/11 01:23:34;;;;;;;16.02;10.05;;;;;;;12.44;81.04;98255.94;5093791;28;20191;-74
2023/10/11 01:26:06;;;;;;;15.43;9.63;;;;;;;12.53;80.75;98253.03;5087721;28;20322;-74
2023/10/11 01:28:34;;;;;;;13.43;9.32;;;;;;;12.58;80.42;98256.78;5086474;28;20222;-74
2023/10/11 01:31:02;;;;;;;11.77;9.27;;;;;;;12.51;80.50;98258.66;5089064;28;20242;-75
2023/10/11 01:33:28;;;;;;;11.18;8.70;;;;;;;12.52;80.26;98254.91;5084337;28;20272;-74
2023/10/11 01:35:55;;;;;;;14.15;9.10;;;;;;;12.49;80.40;98252.59;5085706;28;20195;-73
2023/10/11 01:38:24;;;;;;;12.48;9.13;;;;;;;12.50;80.27;98254.28;5086398;28;20302;-74
2023/10/11 01:40:55;;;;;;;16.50;9.32;;;;;;;12.48;79.58;98245.50;5088925;28;20215;-74
2023/10/11 01:43:22;;;;;;;11.55;8.23;;;;;;;12.49;79.86;98251.75;5085980;28;20347;-74
2023/10/11 01:45:48;;;;;;;11.27;9.20;;;;;;;12.39;80.23;98253.00;5086786;28;20686;-74
2023/10/11 01:48:17;;;;;;;13.25;8.55;;;;;;;12.49;79.60;98244.47;5086090;28;20280;-74
2023/10/11 01:50:47;;;;;;;13.18;8.77;;;;;;;12.55;79.05;98249.06;5088629;28;20260;-73
2023/10/11 01:53:15;;;;;;;12.93;9.00;;;;;;;12.51;78.91;98253.22;5086379;28;20208;-74
2023/10/11 01:55:43;;;;;;;14.65;9.40;;;;;;;12.49;78.97;98241.75;5088066;28;20196;-74
2023/10/11 01:58:12;;;;;;;12.10;8.95;;;;;;;12.47;78.84;98243.84;5087700;28;20323;-74
2023/10/11 02:00:39;;;;;;;13.82;9.00;;;;;;;12.48;78.78;98245.50;5085700;28;20559;-73
2023/10/11 02:03:12;;;;;;;11.10;8.15;;;;;;;12.60;78.51;98241.13;5086837;28;20204;-74
2023/10/11 02:05:40;;;;;;;9.50;7.72;;;;;;;12.55;78.33;98240.91;5086392;28;20288;-74
2023/10/11 02:08:11;;;;;;;12.00;7.55;;;;;;;12.60;78.23;98243.84;5087954;28;20310;-74
2023/10/11 02:10:38;;;;;;;10.30;8.77;;;;;;;12.53;78.28;98237.56;5087949;28;20207;-74
2023/10/11 02:13:09;;;;;;;10.98;7.90;;;;;;;12.47;78.72;98243.84;5086303;28;20231;-73
2023/10/11 02:15:37;;;;;;;14.10;9.88;;;;;;;12.49;78.62;98233.59;5088972;28;20198;-74
2023/10/11 02:18:08;;;;;;;23.77;9.30;;;;;;;12.41;78.83;98229.22;5084055;28;20215;-74
2023/10/11 02:20:35;;;;;;;13.85;8.73;;;;;;;12.41;78.93;98228.38;5085785;28;20219;-74
2023/10/11 02:23:02;;;;;;;15.27;9.20;;;;;;;12.39;78.90;98235.88;5087911;28;20211;-74
2023/10/11 02:25:29;;;;;;;12.38;8.80;;;;;;;12.31;79.20;98233.41;5087863;28;20229;-74
2023/10/11 02:27:56;;;;;;;11.02;8.07;;;;;;;12.36;79.08;98237.13;5087968;28;20226;-74
2023/10/11 02:30:25;;;;;;;12.07;8.70;;;;;;;12.22;79.78;98221.06;5088056;28;20765;-74
2023/10/11 02:32:53;;;;;;;11.35;8.60;;;;;;;12.23;79.59;98231.72;5085379;28;20238;-73
2023/10/11 02:35:26;;;;;;;11.25;8.27;;;;;;;12.30;79.34;98232.56;5084887;28;20187;-74
2023/10/11 02:37:55;;;;;;;10.73;8.40;;;;;;;12.28;79.35;98231.09;5084730;28;20333;-74
2023/10/11 02:40:23;;;;;;;12.48;8.20;;;;;;;12.21;79.36;98230.25;5089270;28;20282;-74
2023/10/11 02:42:51;;;;;;;10.32;7.70;;;;;;;12.16;79.92;98230.88;5087044;28;20203;-74
2023/10/11 02:45:21;;;;;;;11.30;8.40;;;;;;;12.21;79.43;98227.53;5086724;28;20672;-74
2023/10/11 02:47:53;;;;;;;12.52;8.77;;;;;;;12.18;79.59;98230.66;5083500;28;20223;-73
2023/10/11 02:50:25;;;;;;;9.90;7.47;;;;;;;12.22;79.53;98229.22;5082737;28;20200;-74
2023/10/11 02:52:58;;;;;;;13.20;8.85;;;;;;;12.04;80.18;98219.78;5079130;28;20223;-73
2023/10/11 02:55:27;;;;;;;12.48;8.50;;;;;;;12.03;80.43;98226.25;5091713;28;20617;-73
2023/10/11 02:58:06;;;;;;;10.30;8.20;;;;;;;12.02;80.43;98223.78;5085439;28;20211;-74
2023/10/11 03:00:33;;;;;;;13.52;8.30;;;;;;;11.98;80.35;98223.38;5083363;28;20820;-73
2023/10/11 03:03:07;;;;;;;15.15;8.23;;;;;;;11.95;80.52;98218.34;5084016;28;20286;-74
2023/10/11 03:05:37;;;;;;;11.75;7.95;;;;;;;11.97;80.23;98220.84;5087027;28;20671;-74
2023/10/11 03:08:14;;;;;;;11.38;7.70;;;;;;;12.09;79.87;98219.19;5087283;28;20223;-74
2023/10/11 03:10:44;;;;;;;10.48;8.40;;;;;;;12.06;79.77;98212.28;5088331;28;20195;-74
2023/10/11 03:13:12;;;;;;;12.73;8.90;;;;;;;12.05;79.83;98218.75;5086195;28;20659;-74
2023/10/11 03:15:39;;;;;;;10.18;8.15;;;;;;;12.07;79.58;98208.53;5087165;28;20208;-74
2023/10/11 03:18:07;;;;;;;12.35;8.27;;;;;;;12.01;79.84;98212.09;5081521;28;20234;-74
2023/10/11 03:20:36;;;;;;;11.38;8.30;;;;;;;12.07;79.43;98219.38;5086152;28;20244;-74
2023/10/11 03:23:10;;;;;;;12.23;9.10;;;;;;;12.03;79.62;98214.56;5082902;28;20286;-74
2023/10/11 03:25:43;;;;;;;13.70;8.20;;;;;;;12.04;79.69;98211.66;5086817;28;20195;-74
2023/10/11 03:28:14;;;;;;;10.68;7.85;;;;;;;12.04;79.46;98208.94;5084612;28;20216;-74
2023/10/11 03:30:42;;;;;;;10.20;8.18;;;;;;;12.05;79.23;98207.91;5080495;28;20905;-74
2023/10/11 03:33:11;;;;;;;12.82;7.90;;;;;;;12.04;79.44;98210.81;5083701;28;20195;-74
2023/10/11 03:35:44;;;;;;;12.00;8.75;;;;;;;12.05;79.31;98212.50;5088783;28;20660;-74
2023/10/11 03:38:17;;;;;;;10.13;9.02;;;;;;;11.96;79.56;98197.47;5084035;28;20306;-74
2023/10/11 03:43:26;;;;;;;10.43;7.80;;;;;;;12.00;79.20;98202.28;5083879;28;20212;-74
2023/10/11 03:45:56;;;;;;;10.68;8.50;;;;;;;12.03;79.43;98204.56;5085910;28;20191;-74
2023/10/11 03:48:28;;;;;;;13.57;8.38;;;;;;;12.06;79.24;98198.72;5084408;28;20227;-73
2023/10/11 03:50:55;;;;;;;11.27;8.07;;;;;;;12.10;78.88;98199.97;5077565;28;20286;-74
2023/10/11 03:53:22;;;;;;;11.50;8.07;;;;;;;12.04;78.88;98206.22;5084410;28;20200;-72
2023/10/11 03:55:50;;;;;;;12.05;9.13;;;;;;;12.07;79.07;98203.09;5087440;28;20264;-74
2023/10/11 03:58:32;;;;;;;13.20;7.60;;;;;;;12.07;78.90;98210.41;5080168;28;20226;-73
2023/10/11 04:01:07;;;;;;;10.02;8.43;;;;;;;12.01;79.18;98201.25;5075189;28;20249;-74
2023/10/11 04:03:39;;;;;;;11.93;8.38;;;;;;;12.00;79.08;98210.44;5083263;28;20278;-73
2023/10/11 04:06:13;;;;;;;13.40;8.23;;;;;;;11.92;78.77;98180.78;5085406;28;20200;-74
2023/10/11 04:08:42;;;;;;;10.35;8.02;;;;;;;12.06;78.90;98200.59;5085437;28;20242;-74
2023/10/11 04:11:14;;;;;;;15.80;8.25;;;;;;;12.01;78.96;98195.81;5087969;28;20862;-73
2023/10/11 04:13:45;;;;;;;10.40;8.07;;;;;;;12.03;78.91;98193.72;5085637;28;20199;-74
2023/10/11 04:16:12;;;;;;;15.75;8.88;;;;;;;12.01;79.04;98198.53;5079857;28;20244;-76
2023/10/11 04:18:40;;;;;;;12.38;8.20;;;;;;;11.97;79.09;98197.28;5082665;28;20306;-73
2023/10/11 04:21:26;;;;;;;11.23;8.60;;;;;;;11.95;79.19;98196.66;5080386;28;20292;-75
2023/10/11 04:23:55;;;;;;;14.02;8.75;;;;;;;11.93;79.00;98198.72;5089365;28;20195;-74
2023/10/11 04:26:35;;;;;;;10.63;8.35;;;;;;;11.91;79.28;98194.56;5095611;28;20237;-74
2023/10/11 04:29:06;;;;;;;11.10;8.80;;;;;;;11.99;78.88;98206.03;5084620;28;20216;-74
2023/10/11 04:31:53;;;;;;;9.98;8.23;;;;;;;11.89;79.17;98202.91;5086703;28;20222;-74
2023/10/11 04:34:24;;;;;;;10.48;8.88;;;;;;;11.91;79.07;98206.22;5083176;28;20200;-74
2023/10/11 04:36:55;;;;;;;12.45;8.27;;;;;;;11.92;79.27;98199.78;5087083;28;20280;-74
2023/10/11 04:39:28;;;;;;;13.80;8.13;;;;;;;11.90;79.27;98203.72;5087856;28;20220;-74
2023/10/11 04:44:42;;;;;;;15.25;9.27;;;;;;;11.90;79.19;98209.16;5119591;22;20234;-73
2023/10/11 04:47:10;;;;;;;13.25;8.57;;;;;;;11.89;79.21;98218.34;5077252;28;20673;-76
2023/10/11 04:49:38;;;;;;;14.45;8.77;;;;;;;11.90;79.31;98220.00;5069260;28;20604;-76
2023/10/11 04:52:10;;;;;;;10.70;7.95;;;;;;;11.79;79.59;98218.72;5069885;28;20315;-74
2023/10/11 04:54:42;;;;;;;9.63;8.00;;;;;;;11.79;79.49;98213.28;5097914;28;20282;-73
2023/10/11 04:57:17;;;;;;;11.80;8.82;;;;;;;11.81;79.30;98226.66;5095498;28;20256;-74
2023/10/11 04:59:46;;;;;;;17.20;8.40;;;;;;;11.63;79.90;98213.66;5103594;28;20198;-72
2023/10/11 05:02:24;;;;;;;14.35;8.88;;;;;;;11.62;80.05;98217.41;5098125;28;20226;-75
2023/10/11 05:04:56;;;;;;;9.32;8.07;;;;;;;11.63;80.19;98219.09;5101899;28;20203;-73
2023/10/11 05:07:25;;;;;;;12.82;8.18;;;;;;;11.65;80.18;98219.72;5098095;28;20199;-73
2023/10/11 05:09:56;;;;;;;19.63;9.00;;;;;;;11.74;79.29;98221.16;5100150;28;20222;-73
2023/10/11 05:12:24;;;;;;;11.23;8.30;;;;;;;11.69;79.76;98223.69;5099763;28;20218;-73
2023/10/11 05:15:00;;;;;;;12.25;8.85;;;;;;;11.65;79.82;98228.69;5102953;28;20195;-73
2023/10/11 05:20:36;;;;;;;10.50;8.70;;;;;;;11.66;79.60;98219.50;5094435;28;20191;-73
2023/10/11 05:23:06;;;;;;;8.60;7.70;;;;;;;11.62;79.88;98220.13;5101458;28;20227;-73
2023/10/11 05:25:40;;;;;;;11.57;8.75;;;;;;;11.62;79.50;98217.41;5102876;28;20198;-73
2023/10/11 05:31:06;;;;;;;11.63;7.90;;;;;;;11.33;80.28;98200.44;5109635;28;20190;-72
2023/10/11 05:33:44;;;;;;;10.48;8.65;;;;;;;11.52;80.26;98211.53;5104400;28;20229;-72
2023/10/11 05:36:17;;;;;;;12.15;8.00;;;;;;;11.36;80.04;98191.06;5106394;28;20199;-73
2023/10/11 05:52:39;;;;;;;19.60;9.75;;;;;;;11.54;80.19;98231.13;5092338;28;20219;-73
2023/10/11 05:55:07;;;;;;;12.35;8.80;;;;;;;11.61;79.54;98232.84;5104406;28;20898;-72
2023/10/11 05:57:33;;;;;;;12.48;8.73;;;;;;;11.62;79.54;98236.38;5108836;28;20201;-73
2023/10/11 06:00:09;;;;;;;11.00;7.55;;;;;;;11.68;79.32;98235.56;5106915;28;20230;-72
2023/10/11 06:02:38;;;;;;;10.90;7.80;;;;;;;11.66;79.40;98232.22;5094051;28;26346;-73
2023/10/11 06:05:10;;;;;;;15.18;8.80;;;;;;;11.71;78.87;98232.44;5099432;28;20296;-73
2023/10/11 06:07:37;;;;;;;12.00;8.40;;;;;;;11.69;78.96;98223.69;5097223;28;20278;-74
2023/10/11 06:10:07;;;;;;;13.02;7.97;;;;;;;11.86;78.46;98229.59;5100208;28;20192;-73
2023/10/11 06:12:35;;;;;;;8.75;7.70;;;;;;;11.99;77.92;98233.16;5103419;28;20218;-73
2023/10/11 06:15:05;;;;;;;14.07;8.38;;;;;;;12.09;77.13;98230.03;5097902;28;20214;-73
2023/10/11 06:17:41;;;;;;;12.73;7.88;;;;;;;12.39;75.80;98230.47;5101739;28;20223;-73
2023/10/11 06:20:23;;;;;;;12.90;8.85;;;;;;;12.66;74.93;98225.88;5092659;28;20656;-83
2023/10/11 06:22:50;;;;;;;11.07;8.73;;;;;;;12.81;73.85;98233.78;5090266;28;20230;-73
2023/10/11 06:25:23;;;;;;;10.50;7.55;;;;;;;12.85;73.17;98225.00;5102632;28;20223;-74
2023/10/11 06:28:09;;;;;;;15.73;8.20;;;;;;;12.88;73.01;98212.88;5106636;28;20191;-73
2023/10/11 06:30:36;;;;;;;13.35;8.65;;;;;;;13.19;71.74;98221.16;5106056;28;20812;-73
2023/10/11 06:33:06;;;;;;;9.97;7.20;;;;;;;13.60;70.54;98214.53;5105007;28;20215;-73
2023/10/11 06:35:43;;;;;;;16.87;8.10;;;;;;;13.59;70.27;98221.84;5104911;28;20471;-73
2023/10/11 06:38:12;;;;;;;14.93;7.57;;;;;;;13.70;69.65;98226.56;5100863;28;20493;-73
2023/10/11 06:40:39;;;;;;;15.57;8.43;;;;;;;13.85;69.14;98223.56;5104246;28;20532;-73
2023/10/11 06:43:06;;;;;;;12.40;7.13;;;;;;;14.09;68.06;98222.78;5107940;28;20301;-73
2023/10/11 06:45:32;;;;;;;11.20;7.67;;;;;;;14.23;67.79;98218.09;5100045;28;21066;-73
2023/10/11 06:48:06;;;;;;;10.23;7.50;;;;;;;14.31;67.25;98231.41;5104589;28;20572;-73
2023/10/11 06:50:35;;;;;;;11.13;7.60;;;;;;;14.49;66.48;98233.41;5105217;28;20468;-73
2023/10/11 06:53:06;;;;;;;12.67;8.50;;;;;;;14.68;66.14;98229.66;5100190;28;20519;-73
2023/10/11 06:55:35;;;;;;;10.50;6.57;;;;;;;14.98;64.87;98228.94;5102952;28;20591;-73
2023/10/11 06:58:09;;;;;;;11.60;7.30;;;;;;;15.38;63.57;98227.44;5101248;28;21025;-73
2023/10/11 07:00:45;;;;;;;10.60;7.00;;;;;;;15.68;62.44;98223.97;5095945;28;20532;-73
2023/10/11 07:03:21;;;;;;;9.87;7.30;;;;;;;15.90;61.71;98229.78;5106651;28;20484;-73
2023/10/11 07:05:49;;;;;;;12.77;8.37;;;;;;;16.04;61.08;98240.25;5099608;28;20779;-74
2023/10/11 07:08:18;;;;;;;9.53;6.77;;;;;;;16.25;60.33;98227.13;5106009;28;20459;-73
2023/10/11 07:10:46;;;;;;;10.63;6.90;;;;;;;16.31;60.19;98229.75;5101147;28;20463;-73
2023/10/11 07:13:14;;;;;;;12.97;7.27;;;;;;;16.73;58.91;98232.47;5103666;28;20514;-73
2023/10/11 07:15:43;;;;;;;9.33;6.43;;;;;;;17.06;57.84;98246.38;5100959;28;20457;-74
2023/10/11 07:18:12;;;;;;;9.83;7.27;;;;;;;17.20;56.88;98230.56;5108169;28;20955;-74
2023/10/11 07:20:49;;;;;;;10.27;7.17;;;;;;;17.19;56.61;98234.38;5099610;28;20535;-74
2023/10/11 07:23:19;;;;;;;10.80;7.00;;;;;;;17.19;56.62;98242.56;5098465;28;20490;-73
2023/10/11 07:25:49;;;;;;;8.67;7.20;;;;;;;17.50;56.18;98237.75;5109121;28;20540;-73
2023/10/11 07:28:35;;;;;;;12.27;7.27;;;;;;;17.92;55.36;98236.44;5109098;28;20452;-74
2023/10/11 07:31:03;;;;;;;12.17;7.13;;;;;;;18.08;54.41;98243.88;5103086;28;20451;-74
2023/10/11 07:33:29;;;;;;;10.00;7.87;;;;;;;18.33;53.67;98242.69;5099359;28;20476;-74
2023/10/11 07:35:59;;;;;;;9.77;6.93;;;;;;;18.83;52.35;98245.50;5098367;28;20524;-74
2023/10/11 07:38:33;;;;;;;8.17;6.30;;;;;;;18.81;51.72;98242.16;5102152;28;20516;-73
2023/10/11 07:41:04;;;;;;;9.17;6.83;;;;;;;19.15;51.35;98248.44;5106315;28;20464;-74
2023/10/11 07:43:33;;;;;;;13.10;7.30;;;;;;;19.43;50.29;98250.22;5107518;28;21034;-74
2023/10/11 07:46:02;;;;;;;10.87;6.93;;;;;;;19.41;49.43;98244.97;5110206;28;20815;-74
2023/10/11 07:48:32;;;;;;;11.37;7.00;;;;;;;19.45;50.28;98245.28;5103488;28;20450;-74
2023/10/11 07:51:09;;;;;;;12.67;7.43;;;;;;;19.55;50.02;98248.19;5102066;28;20979;-74
2023/10/11 07:53:38;;;;;;;9.20;7.07;;;;;;;20.05;48.31;98242.50;5109983;28;20888;-74
2023/10/11 07:56:05;;;;;;;9.77;6.87;;;;;;;19.89;48.83;98245.31;5104661;28;21007;-74
2023/10/11 07:58:33;;;;;;;13.40;7.60;;;;;;;20.19;48.65;98244.81;5100088;28;20843;-74
2023/10/11 08:01:03;;;;;;;11.97;6.97;;;;;;;20.87;46.85;98237.75;5100017;28;20541;-74
2023/10/11 08:03:34;;;;;;;9.50;6.60;;;;;;;20.99;46.19;98235.66;5105801;28;20574;-74
2023/10/11 08:06:05;;;;;;;10.20;6.83;;;;;;;21.16;46.10;98243.75;5090904;28;20452;-74
2023/10/11 08:08:32;;;;;;;12.47;7.40;;;;;;;21.14;45.41;98241.25;5104832;28;20466;-74
2023/10/11 08:11:06;;;;;;;11.47;6.87;;;;;;;21.39;45.47;98240.63;5105247;28;20458;-74
2023/10/11 08:13:34;;;;;;;10.77;6.70;;;;;;;21.30;45.26;98237.53;5104892;28;20475;-74
2023/10/11 08:16:05;;;;;;;8.83;7.10;;;;;;;21.60;44.74;98231.34;5109951;28;20447;-74
2023/10/11 08:18:33;;;;;;;10.20;7.10;;;;;;;21.88;44.31;98237.53;5105607;28;20437;-74
2023/10/11 08:21:00;;;;;;;10.20;6.50;;;;;;;21.85;44.09;98243.56;5109810;28;20476;-74
2023/10/11 08:23:30;;;;;;;11.70;6.00;;;;;;;22.50;42.42;98237.41;5100140;28;20574;-74
2023/10/11 08:25:57;;;;;;;10.00;7.17;;;;;;;22.98;40.71;98238.03;5109129;28;20453;-74
2023/10/11 08:28:29;;;;;;;9.97;6.47;;;;;;;23.21;40.58;98239.38;5111486;28;20831;-74
2023/10/11 08:30:58;;;;;;;11.70;7.40;;;;;;;23.31;40.69;98237.41;5107932;28;20452;-74
2023/10/11 08:33:25;;;;;;;7.10;6.07;;;;;;;23.46;40.19;98237.38;5106471;28;20518;-74
2023/10/11 08:35:53;;;;;;;10.60;7.53;;;;;;;23.44;39.87;98245.09;5108227;28;20531;-75
2023/10/11 08:38:24;;;;;;;9.70;6.30;;;;;;;23.88;38.77;98238.91;5109800;28;20442;-75
2023/10/11 08:40:57;;;;;;;10.23;6.13;;;;;;;23.82;39.32;98226.22;5096895;28;20889;-75
2023/10/11 08:43:25;;;;;;;7.27;5.97;;;;;;;24.21;37.28;98236.53;5103353;28;21005;-74
2023/10/11 08:46:00;;;;;;;10.10;5.97;;;;;;;23.85;38.60;98233.94;5099094;28;20539;-75
2023/10/11 08:48:29;;;;;;;10.73;6.70;;;;;;;23.86;39.09;98235.59;5107727;28;20945;-74
2023/10/11 08:50:57;;;;;;;11.37;6.00;;;;;;;24.03;38.23;98224.19;5106200;28;20534;-74
2023/10/11 08:53:24;;;;;;;10.50;6.10;;;;;;;24.15;38.29;98226.59;5101564;28;21081;-74
2023/10/11 08:55:56;;;;;;;10.90;5.87;;;;;;;24.59;37.09;98224.69;5109671;28;21489;-74
2023/10/11 08:58:27;;;;;;;9.60;5.60;;;;;;;23.87;37.94;98231.72;5111524;28;20464;-74
2023/10/11 09:00:55;;;;;;;8.87;5.37;;;;;;;24.17;36.58;98224.38;5096978;28;20492;-75
2023/10/11 09:03:23;;;;;;;6.97;5.50;;;;;;;24.28;36.65;98220.47;5098539;28;20518;-74
2023/10/11 09:05:58;;;;;;;11.67;6.03;;;;;;;24.74;36.06;98218.16;5100342;28;21046;-74
2023/10/11 09:08:27;;;;;;;10.90;6.30;;;;;;;24.99;35.76;98222.72;5105787;28;20459;-75
2023/10/11 09:11:02;;;;;;;9.43;6.30;;;;;;;24.62;35.74;98226.88;5102847;28;20482;-75
2023/10/11 09:13:29;;;;;;;10.40;6.03;;;;;;;24.82;36.01;98219.50;5097433;28;20526;-74
2023/10/11 09:15:56;;;;;;;12.00;5.80;;;;;;;24.59;36.14;98227.44;5107459;28;20475;-74
2023/10/11 09:18:25;;;;;;;8.33;5.60;;;;;;;25.14;35.19;98228.09;5098232;28;20488;-75
2023/10/11 09:21:08;;;;;;;8.90;5.80;;;;;;;25.36;34.99;98230.34;5103193;28;20452;-75
2023/10/11 09:23:36;;;;;;;10.80;6.27;;;;;;;26.17;33.67;98229.41;5110066;28;20494;-75
2023/10/11 09:26:03;;;;;;;9.13;5.90;;;;;;;26.61;32.70;98228.25;5105375;28;20445;-75
2023/10/11 09:28:33;;;;;;;11.07;6.33;;;;;;;27.21;31.61;98223.63;5105838;28;20445;-75
2023/10/11 09:31:10;;;;;;;8.70;5.80;;;;;;;27.33;31.74;98229.50;5109369;28;20480;-75
2023/10/11 09:33:38;;;;;;;9.27;5.70;;;;;;;28.37;29.72;98228.78;5100333;28;20528;-75
2023/10/11 09:36:07;;;;;;;8.87;5.97;;;;;;;28.58;29.34;98234.72;5108648;28;20461;-75
2023/10/11 09:38:39;;;;;;;9.17;5.63;;;;;;;29.12;28.70;98234.81;5102097;28;20881;-75
2023/10/11 09:41:07;;;;;;;8.57;6.10;;;;;;;29.94;27.45;98229.44;5100300;28;20472;-75
2023/10/11 09:43:38;;;;;;;9.00;5.70;;;;;;;30.19;27.08;98222.34;5103173;28;20494;-75
2023/10/11 09:46:11;;;;;;;8.00;5.40;;;;;;;29.47;28.69;98230.28;5108456;28;21595;-75
2023/10/11 09:48:38;;;;;;;8.87;5.10;;;;;;;29.21;28.22;98232.91;5107511;28;20456;-75
2023/10/11 09:51:09;;;;;;;9.43;5.70;;;;;;;29.12;29.62;98226.44;5105604;28;20563;-75
2023/10/11 09:53:41;;;;;;;12.73;5.70;;;;;;;29.48;28.30;98226.34;5108368;28;20500;-75
2023/10/11 09:56:15;;;;;;;9.00;5.40;;;;;;;29.37;28.75;98221.00;5105417;28;20452;-74
2023/10/11 09:58:45;;;;;;;12.70;6.10;;;;;;;28.96;30.11;98220.41;5100202;28;21050;-76
2023/10/11 10:01:18;;;;;;;8.20;5.30;;;;;;;29.88;27.47;98216.81;5104680;28;20845;-77
2023/10/11 10:03:47;;;;;;;6.33;5.73;;;;;;;29.79;27.94;98209.56;5106548;28;20484;-76
2023/10/11 10:06:21;;;;;;;8.27;5.70;;;;;;;30.27;27.40;98209.50;5104866;28;20456;-78
2023/10/11 10:09:23;;;;;;;7.67;5.63;;;;;;;30.29;26.96;98213.63;5104394;28;20571;-78
2023/10/11 10:12:21;;;;;;;11.23;6.53;;;;;;;30.50;27.38;98213.81;5105390;28;20548;-77
2023/10/11 10:14:50;;;;;;;10.90;5.90;;;;;;;30.80;26.49;98211.22;5097343;28;20454;-74
2023/10/11 10:17:18;;;;;;;6.80;5.97;;;;;;;30.91;26.38;98218.91;5101542;28;20452;-76
2023/10/11 10:19:46;;;;;;;7.63;5.70;;;;;;;31.38;26.18;98222.63;5104946;28;20456;-77
2023/10/11 10:22:22;;;;;;;10.20;5.73;;;;;;;31.11;25.49;98223.00;5106571;28;21102;-76
2023/10/11 10:24:54;;;;;;;8.37;5.90;;;;;;;31.45;25.70;98224.09;5101563;28;20542;-74
2023/10/11 10:27:38;;;;;;;9.60;6.17;;;;;;;31.50;25.13;98215.53;5106718;28;20980;-75
2023/10/11 10:30:07;;;;;;;7.40;5.23;;;;;;;31.65;25.40;98214.97;5108064;28;20456;-76
2023/10/11 10:32:34;;;;;;;7.83;5.47;;;;;;;32.11;24.72;98221.69;5100756;28;20490;-74
2023/10/11 10:35:36;;;;;;;14.37;6.27;;;;;;;32.21;24.26;98215.66;5101368;28;20548;-77
2023/10/11 10:38:09;;;;;;;8.67;6.00;;;;;;;32.19;24.85;98217.97;5105379;28;20493;-76
2023/10/11 10:40:37;;;;;;;8.90;5.13;;;;;;;32.36;24.28;98201.09;5105862;28;20455;-76
2023/10/11 10:43:19;;;;;;;8.87;5.83;;;;;;;32.73;24.21;98205.72;5096308;28;20477;-73
2023/10/11 10:45:47;;;;;;;9.73;5.57;;;;;;;33.34;23.54;98208.81;5104393;28;20464;-77
2023/10/11 10:48:15;;;;;;;11.37;6.10;;;;;;;32.83;24.09;98204.50;5106481;28;20495;-74
2023/10/11 10:50:49;;;;;;;8.53;5.50;;;;;;;32.85;23.48;98204.16;5106811;28;20459;-74
2023/10/11 10:53:16;;;;;;;10.60;5.57;;;;;;;33.47;22.76;98200.38;5099907;28;20519;-74
2023/10/11 10:55:44;;;;;;;9.20;5.53;;;;;;;33.84;22.48;98196.47;5102059;28;20458;-75
2023/10/11 10:58:16;;;;;;;8.67;5.73;;;;;;;33.93;22.59;98191.56;5103796;28;20509;-79
2023/10/11 11:00:44;;;;;;;9.60;5.40;;;;;;;34.07;22.73;98184.78;5104269;28;20465;-76
2023/10/11 11:03:19;;;;;;;7.00;5.00;;;;;;;34.54;22.34;98176.59;5105827;28;20815;-76
2023/10/11 11:05:56;;;;;;;8.73;5.63;;;;;;;35.02;21.87;98173.63;5105920;28;20505;-76
2023/10/11 11:08:28;;;;;;;7.07;5.80;;;;;;;35.18;22.00;98173.63;5097571;28;20552;-79
2023/10/11 11:10:59;;;;;;;7.93;5.60;;;;;;;35.88;21.30;98173.88;5103862;28;20989;-76
2023/10/11 11:13:29;;;;;;;7.20;4.97;;;;;;;35.96;21.29;98172.88;5094973;28;21186;-76
2023/10/11 11:15:55;;;;;;;7.07;5.00;;;;;;;36.14;20.60;98175.28;5090315;28;20448;-77
2023/10/11 11:18:32;;;;;;;8.00;5.03;;;;;;;36.32;20.83;98170.91;5109146;28;20548;-77
2023/10/11 11:21:17;;;;;;;9.93;5.23;;;;;;;36.52;20.22;98169.72;5109565;28;20531;-77
2023/10/11 11:23:45;;;;;;;8.03;5.40;;;;;;;35.76;21.00;98173.13;5106956;28;20471;-78
2023/10/11 11:26:15;;;;;;;9.70;5.70;;;;;;;36.19;20.52;98163.72;5101014;28;20452;-77
2023/10/11 11:28:43;;;;;;;11.10;5.93;;;;;;;35.19;22.10;98174.44;5109274;28;20531;-78
2023/10/11 11:31:13;;;;;;;6.60;5.23;;;;;;;34.17;22.40;98167.41;5108275;28;20455;-80
2023/10/11 11:34:05;;;;;;;6.53;4.93;;;;;;;34.70;21.59;98169.06;5109887;28;20667;-77
2023/10/11 11:36:31;;;;;;;8.93;5.10;;;;;;;35.10;21.42;98160.53;5106316;28;20452;-75
2023/10/11 11:39:17;;;;;;;7.07;5.20;;;;;;;34.68;21.23;98155.34;5107891;28;20536;-76
2023/10/11 11:41:47;;;;;;;6.17;4.83;;;;;;;33.94;22.76;98153.88;5110769;28;20472;-76
2023/10/11 11:44:19;;;;;;;7.80;4.93;;;;;;;34.05;22.21;98148.59;5108514;28;20484;-76
2023/10/11 11:46:48;;;;;;;8.00;4.70;;;;;;;33.68;22.48;98139.34;5110794;28;20540;-76
2023/10/11 11:49:17;;;;;;;11.43;5.47;;;;;;;33.78;22.49;98133.28;5102999;28;20460;-79
2023/10/11 11:51:43;;;;;;;5.70;4.60;;;;;;;33.49;22.91;98137.09;5107070;28;20480;-77
2023/10/11 11:54:17;;;;;;;6.40;5.00;;;;;;;33.94;22.03;98134.19;5100940;28;20459;-79
2023/10/11 11:56:45;;;;;;;6.80;4.70;;;;;;;33.55;23.10;98129.28;5104718;28;20235;-81
2023/10/11 11:59:17;;;;;;;8.40;4.20;;;;;;;33.32;22.98;98131.72;5116119;28;20459;-84
2023/10/11 12:01:45;;;;;;;9.63;5.10;;;;;;;33.52;23.14;98124.38;5117486;28;20489;-78
2023/10/11 12:04:13;;;;;;;6.33;5.00;;;;;;;33.68;22.73;98116.88;5100741;28;20479;-77
2023/10/11 12:06:39;;;;;;;6.63;4.03;;;;;;;32.94;23.22;98112.34;5108209;28;20452;-73
2023/10/11 12:09:08;;;;;;;8.20;4.53;;;;;;;32.60;23.30;98103.09;5106059;28;20526;-73